Professional Rodeo Cowboys Association
PRCA RAM WORLD STANDINGS
ProRodeo Gear Official Merchandise Of The PRCA

PRCA Stock Statistics

SEARCH BY:
Stock Rodeo Contestant Stock Contractor

Garrett Shadbolt

EVENT:
Unofficial results reflect placement at time of Web posting and can change.

SEASON BREAKDOWN

Season Attempts Qual Rides Re-rides Ride %
2019 82 78 0 95.12 %
Totals 82 78 0 0.00 %

RODEO DETAIL

Date Location Rodeo SC Brand Ride Comments Stock Score Contestant Score
9/28/2019 Kansas City, MO American Royal Pro Rodeo SS H2 82.00 20.00 / 21.00 20.00 / 21.00
9/27/2019 Omaha, NE Omaha River City Rodeo CC S103 81.00 20.50 / 19.00 20.50 / 21.00
9/10/2019 Albuquerque, NM New Mexico State Fair & Rodeo RH 01 76.00 20.00 / 22.00 19.00 / 15.00
9/7/2019 Lewiston, ID Lewiston Roundup SA 432 81.00 21.00 / 22.00 21.00 / 17.00
9/6/2019 Puyallup, WA Washington State Fair Pro Rodeo BS LT88 79.50 19.50 / 19.00 22.00 / 19.00
9/5/2019 Puyallup, WA Washington State Fair Pro Rodeo TB MX69 85.00 21.00 / 22.00 20.00 / 22.00
9/1/2019 Elk City, OK Elk City Rodeo Of Champions BU 611 75.00 21.00 / 20.50 13.00 / 20.50
8/31/2019 Ellensburg, WA Ellensburg Rodeo CA A-30 70.00 17.00 / 17.00 19.00 / 17.00
8/30/2019 Walla Walla, WA Walla Walla Frontier Days BS Y12 84.50 20.00 / 21.00 22.00 / 21.50
8/25/2019 Hastings, NE Oregon Trail Rodeo KR 402 75.00 17.00 / 20.00 17.00 / 21.00
8/24/2019 San Juan Capistrano, CA Rancho Mission Viejo Rodeo RO -07 79.00 19.00 / 21.00 19.00 / 20.00
8/23/2019 Tremonton, UT Golden Spike Rodeo BT A+6 83.00 19.50 / 20.00 22.00 / 21.50
8/22/2019 Bremerton, WA Kitsap Stampede HN 120 84.50 22.50 / 20.00 21.00 / 21.00
8/21/2019 Rapid City, SD Range Days Rodeo BH 403 82.50 20.00 / 21.00 20.00 / 21.50
8/18/2019 Baker, MT Fallon County Fair & Rodeo C5 F13 0.00 23.00 / 24.00 0.00 / 0.00
8/17/2019 Burley, ID Cassia County Fair & Rodeo BT AR4 83.00 22.00 / 21.00 18.00 / 22.00
8/16/2019 Gooding, ID Gooding Pro Rodeo KR 331 86.50 21.00 / 21.00 22.00 / 22.50
8/15/2019 Caldwell, ID Caldwell Night Rodeo PR 099 80.50 20.00 / 20.00 20.00 / 20.50
8/10/2019 Sioux Falls, SD Sioux Empire Fair Rodeo KR 001 81.00 18.00 / 20.00 21.00 / 22.00
8/8/2019 Lovington, NM Lea County PRCA Rodeo CR 104- 86.00 21.00 / 21.00 22.00 / 22.00
8/7/2019 Lawton, OK Lawton Rangers Rodeo BU 146 78.00 18.00 / 18.00 20.00 / 22.00
8/3/2019 Heber City, UT Mountain Valley Stampede Rodeo PR 034- 78.00 22.00 / 20.00 17.00 / 19.00
8/2/2019 Idaho Falls, ID Idaho s Oldest Rodeo - The War Bonnet Round Up UP P37 86.00 21.00 / 21.50 22.00 / 21.50
8/1/2019 Preston, ID That Famous Preston Night Rodeo BT 7+1 76.00 18.00 / 21.00 18.00 / 19.00
7/31/2019 Great Falls, MT Big Sky Pro Rodeo SA 719 79.00 20.00 / 19.00 20.00 / 20.00
Page of 4
Per Page
 
 
 
PRCA Sponsors

MGM Grand Polaris Ranger Cinch Jeans Bloomer Trailers Gold Buckle Beer Outlaw Equine

Copyright © 2019 Professional Rodeo Cowboys Association. All rights reserved. No portion of ProRodeo.com may be duplicated, redistributed or manipulated in any form. By accessing any information beyond this page, you agree to abide by the Terms of Use.


PRCA Wrangler National Finals Rodeo Wrangler ProRodeo Tour Finale Presented by Justin Boots Xtreme Bulls RAM National Circuit Finals Rodeo ProRodeo Gear ProRodeo Tour World Standings Tour Standings PRCA Rodeo Schedule Rodeo Results Facebook Twitter Instagram YouTube Mobile App ProRodeoTv.Com